Time;durP1;ratioP1;P1;durP2;ratioP2;P2;SDS_P1;SDS_P2;PMS_P1;PMS_P2;Temp;Humidity;BMP_temperature;BMP_pressure;BME280_temperature;BME280_humidity;BME280_pressure;Samples;Min_cycle;Max_cycle;Signal;HPM_P1;HPM_P2
2021/04/18 00:01:40;;;;;;;7.00;4.63;;;8.90;99.90;;;;;;4996707;28;20232;-63
2021/04/18 00:04:06;;;;;;;6.90;4.47;;;8.80;99.90;;;;;;4996296;28;20266;-64
2021/04/18 00:06:36;;;;;;;8.75;4.65;;;8.80;1.00;;;;;;4996675;28;20290;-63
2021/04/18 00:09:04;;;;;;;9.70;4.50;;;8.90;1.00;;;;;;4996337;28;20262;-63
2021/04/18 00:11:30;;;;;;;9.98;4.95;;;8.80;1.00;;;;;;4995178;28;20191;-63
2021/04/18 00:13:57;;;;;;;6.65;4.22;;;9.00;1.00;;;;;;4995891;28;20179;-64
2021/04/18 00:16:22;;;;;;;9.50;5.80;;;9.00;99.90;;;;;;4996749;28;20205;-64
2021/04/18 00:18:51;;;;;;;8.17;5.20;;;8.90;1.00;;;;;;4996055;28;20190;-62
2021/04/18 00:21:17;;;;;;;7.78;4.30;;;9.00;1.00;;;;;;4995959;28;20202;-64
2021/04/18 00:23:43;;;;;;;10.63;4.50;;;9.00;1.00;;;;;;4995965;28;20172;-64
2021/04/18 00:26:08;;;;;;;14.35;5.35;;;9.10;99.90;;;;;;4995929;28;20207;-64
2021/04/18 00:28:34;;;;;;;9.93;5.50;;;8.90;99.90;;;;;;4995087;28;20355;-63
2021/04/18 00:31:00;;;;;;;10.93;5.10;;;8.70;99.90;;;;;;4996173;28;20210;-62
2021/04/18 00:33:26;;;;;;;9.70;5.20;;;8.70;1.00;;;;;;4995839;28;20197;-63
2021/04/18 00:35:52;;;;;;;9.85;4.68;;;8.80;99.90;;;;;;4995865;28;20429;-64
2021/04/18 00:38:19;;;;;;;5.18;4.20;;;8.80;1.00;;;;;;4996157;28;20183;-63
2021/04/18 00:40:44;;;;;;;9.55;5.97;;;8.70;19.90;;;;;;4995855;28;20278;-64
2021/04/18 00:43:10;;;;;;;6.27;4.40;;;8.90;1.00;;;;;;4995620;28;20290;-64
2021/04/18 00:45:36;;;;;;;9.97;5.07;;;9.00;1.00;;;;;;4995981;28;20182;-64
2021/04/18 00:48:02;;;;;;;9.40;5.70;;;9.00;1.00;;;;;;4995097;28;20933;-63
2021/04/18 00:50:35;;;;;;;8.57;4.65;;;9.00;1.00;;;;;;4993672;28;20213;-64
2021/04/18 00:53:04;;;;;;;8.90;4.78;;;9.10;99.90;;;;;;4994898;28;20191;-61
2021/04/18 00:55:31;;;;;;;12.10;6.05;;;8.90;1.00;;;;;;4994631;28;20184;-62
2021/04/18 00:57:58;;;;;;;9.38;5.57;;;9.00;99.90;;;;;;4995776;28;20184;-62
2021/04/18 01:00:25;;;;;;;8.85;5.50;;;8.80;99.90;;;;;;4996034;28;20245;-61
2021/04/18 01:02:51;;;;;;;9.98;4.95;;;9.00;1.00;;;;;;4995301;28;20214;-61
2021/04/18 01:05:17;;;;;;;10.02;4.60;;;9.00;1.00;;;;;;4995279;28;20195;-61
2021/04/18 01:07:43;;;;;;;7.80;5.00;;;8.90;1.00;;;;;;4995261;28;20182;-61
2021/04/18 01:10:13;;;;;;;10.20;5.63;;;9.00;1.00;;;;;;4995586;28;20183;-61
2021/04/18 01:12:39;;;;;;;7.75;4.95;;;8.90;99.90;;;;;;4995394;28;20434;-63
2021/04/18 01:15:07;;;;;;;7.00;5.47;;;9.10;41.70;;;;;;4994191;28;20256;-63
2021/04/18 01:17:33;;;;;;;9.10;5.55;;;9.40;1.00;;;;;;4995345;28;20261;-63
2021/04/18 01:19:59;;;;;;;8.27;6.00;;;9.40;99.90;;;;;;4995163;28;20230;-63
2021/04/18 01:22:24;;;;;;;11.17;5.53;;;9.60;18.50;;;;;;4994118;28;20210;-63
2021/04/18 01:24:50;;;;;;;7.87;5.60;;;9.40;1.00;;;;;;4994689;28;20191;-63
2021/04/18 01:27:17;;;;;;;11.70;6.20;;;9.30;1.00;;;;;;4994298;28;20527;-63
2021/04/18 01:29:43;;;;;;;7.00;5.53;;;9.10;99.90;;;;;;4995102;28;20172;-63
2021/04/18 01:32:09;;;;;;;7.45;5.85;;;8.80;1.00;;;;;;4993889;28;20194;-63
2021/04/18 01:34:42;;;;;;;9.47;5.07;;;8.80;1.00;;;;;;4994351;28;20201;-63
2021/04/18 01:37:08;;;;;;;10.18;5.70;;;8.90;1.00;;;;;;4994808;28;20524;-63
2021/04/18 01:39:34;;;;;;;9.43;5.55;;;8.70;99.90;;;;;;4994772;28;20612;-63
2021/04/18 01:42:01;;;;;;;7.85;5.13;;;8.60;1.00;;;;;;4994303;28;20214;-63
2021/04/18 01:44:26;;;;;;;8.27;5.28;;;8.40;1.00;;;;;;4993531;28;20228;-63
2021/04/18 01:46:52;;;;;;;8.70;6.17;;;8.60;1.00;;;;;;4994617;28;20179;-63
2021/04/18 01:49:18;;;;;;;10.25;5.55;;;8.90;1.00;;;;;;4994374;28;20210;-63
2021/04/18 01:51:44;;;;;;;10.40;6.07;;;9.00;99.90;;;;;;4994395;28;20211;-63
2021/04/18 01:54:13;;;;;;;14.43;6.33;;;9.20;99.90;;;;;;4994078;28;20179;-63
2021/04/18 01:56:38;;;;;;;10.65;5.65;;;9.30;48.80;;;;;;4994321;28;20465;-61
2021/04/18 01:59:04;;;;;;;8.53;6.23;;;8.90;99.90;;;;;;4994458;28;20186;-61
2021/04/18 02:01:29;;;;;;;8.07;5.47;;;8.70;99.90;;;;;;4993816;28;20542;-61
2021/04/18 02:03:56;;;;;;;6.13;5.03;;;8.80;1.00;;;;;;4993574;28;20245;-62
2021/04/18 02:06:22;;;;;;;8.75;5.93;;;8.60;1.00;;;;;;4994157;28;20635;-62
2021/04/18 02:08:47;;;;;;;8.83;5.13;;;8.40;1.00;;;;;;4994233;28;20183;-63
2021/04/18 02:11:13;;;;;;;11.00;5.50;;;8.10;99.90;;;;;;4994247;28;20189;-63
2021/04/18 02:13:41;;;;;;;9.23;6.47;;;8.10;99.90;;;;;;4993671;28;20221;-63
2021/04/18 02:16:10;;;;;;;8.98;6.80;;;8.00;99.90;;;;;;4994029;28;20280;-63
2021/04/18 02:18:35;;;;;;;10.15;5.20;;;7.90;99.90;;;;;;4993649;28;20193;-64
2021/04/18 02:21:01;;;;;;;10.63;4.70;;;7.90;99.90;;;;;;4994056;28;20269;-63
2021/04/18 02:23:27;;;;;;;12.20;4.90;;;7.80;99.90;;;;;;4993820;28;20644;-63
2021/04/18 02:25:52;;;;;;;11.00;5.97;;;7.80;99.90;;;;;;4994110;28;20285;-63
2021/04/18 02:28:18;;;;;;;8.00;6.43;;;7.80;99.90;;;;;;4993815;28;20262;-63
2021/04/18 02:30:43;;;;;;;7.10;4.97;;;8.00;37.60;;;;;;4993944;28;20186;-63
2021/04/18 02:33:09;;;;;;;5.80;4.93;;;7.80;1.00;;;;;;4993396;28;20582;-63
2021/04/18 02:35:34;;;;;;;9.70;5.17;;;7.90;17.10;;;;;;4993779;28;20190;-63
2021/04/18 02:38:00;;;;;;;14.23;6.67;;;7.70;1.00;;;;;;4993824;28;20196;-63
2021/04/18 02:40:26;;;;;;;8.43;3.93;;;7.60;1.00;;;;;;4994369;28;20190;-63
2021/04/18 02:42:52;;;;;;;8.87;4.80;;;7.50;1.00;;;;;;4993695;28;20292;-64
2021/04/18 02:45:17;;;;;;;8.63;4.20;;;7.40;99.90;;;;;;4993302;28;20193;-64
2021/04/18 02:47:43;;;;;;;6.90;4.73;;;7.40;99.90;;;;;;4993565;28;20437;-64
2021/04/18 02:50:09;;;;;;;6.77;4.23;;;7.40;99.90;;;;;;4994194;28;20240;-63
2021/04/18 02:52:35;;;;;;;6.55;4.32;;;7.50;99.90;;;;;;4993877;28;20205;-63
2021/04/18 02:55:01;;;;;;;11.70;5.80;;;7.60;99.90;;;;;;4993300;28;20521;-63
2021/04/18 02:57:27;;;;;;;8.80;4.55;;;7.40;99.90;;;;;;4993889;28;20198;-62
2021/04/18 02:59:53;;;;;;;9.53;4.10;;;7.40;99.90;;;;;;4993791;28;20213;-62
2021/04/18 03:02:22;;;;;;;7.67;3.70;;;7.40;99.90;;;;;;4993566;28;20461;-61
2021/04/18 03:04:47;;;;;;;9.80;4.50;;;7.30;99.90;;;;;;4993482;28;20201;-60
2021/04/18 03:07:13;;;;;;;10.07;5.00;;;7.20;99.90;;;;;;4993554;28;20612;-61
2021/04/18 03:09:39;;;;;;;8.40;5.00;;;7.30;99.90;;;;;;4991614;28;20178;-61
2021/04/18 03:12:05;;;;;;;7.83;4.33;;;7.30;99.90;;;;;;4993600;28;20656;-61
2021/04/18 03:14:30;;;;;;;9.43;4.50;;;7.30;99.90;;;;;;4996554;28;20190;-61
2021/04/18 03:16:56;;;;;;;9.80;4.90;;;7.20;99.90;;;;;;4997454;28;20200;-61
2021/04/18 03:19:21;;;;;;;6.00;4.13;;;7.10;99.90;;;;;;4997454;28;20211;-61
2021/04/18 03:21:47;;;;;;;8.90;3.97;;;7.10;99.90;;;;;;4997355;28;20245;-62
2021/04/18 03:24:12;;;;;;;8.17;4.10;;;7.10;99.90;;;;;;4996723;28;20619;-61
2021/04/18 03:26:38;;;;;;;8.23;4.67;;;7.00;99.90;;;;;;4997164;28;20195;-61
2021/04/18 03:29:04;;;;;;;10.15;4.47;;;7.00;99.90;;;;;;4997255;28;20183;-61
2021/04/18 03:31:30;;;;;;;8.17;4.27;;;6.90;99.90;;;;;;4997421;28;20178;-63
2021/04/18 03:33:55;;;;;;;5.80;3.77;;;6.90;99.90;;;;;;4996582;28;20269;-63
2021/04/18 03:36:21;;;;;;;9.20;4.10;;;6.90;99.90;;;;;;4996937;28;20191;-62
2021/04/18 03:38:49;;;;;;;5.33;3.47;;;6.80;99.90;;;;;;4997134;28;20190;-63
2021/04/18 03:41:15;;;;;;;5.55;3.70;;;6.80;99.90;;;;;;4997149;28;20183;-64
2021/04/18 03:43:41;;;;;;;5.47;3.33;;;7.00;99.90;;;;;;4996551;28;20193;-63
2021/04/18 03:46:06;;;;;;;7.40;3.57;;;7.00;99.90;;;;;;4996916;28;20438;-63
2021/04/18 03:48:32;;;;;;;6.93;3.50;;;7.00;99.90;;;;;;4997003;28;20187;-63
2021/04/18 03:50:58;;;;;;;7.70;3.60;;;7.20;99.90;;;;;;4996849;28;20604;-63
2021/04/18 03:53:23;;;;;;;6.57;3.80;;;7.30;86.20;;;;;;4996383;28;20218;-63
2021/04/18 03:55:49;;;;;;;6.17;4.03;;;7.20;33.60;;;;;;4996740;28;20187;-64
2021/04/18 03:58:14;;;;;;;16.73;3.63;;;7.00;99.90;;;;;;4996615;28;20190;-61
2021/04/18 04:00:40;;;;;;;6.33;4.13;;;6.90;99.90;;;;;;4996613;28;20185;-62
2021/04/18 04:03:05;;;;;;;5.43;3.40;;;6.90;99.90;;;;;;4996239;28;20225;-60
2021/04/18 04:05:31;;;;;;;4.93;3.70;;;6.70;99.90;;;;;;4996399;28;20482;-62
2021/04/18 04:07:57;;;;;;;10.40;3.50;;;7.00;99.90;;;;;;4996506;28;20277;-61
2021/04/18 04:10:23;;;;;;;4.30;3.03;;;7.10;99.90;;;;;;4996475;28;20179;-62
2021/04/18 04:12:48;;;;;;;6.33;3.67;;;6.90;99.90;;;;;;4995444;28;20194;-62
2021/04/18 04:15:14;;;;;;;6.60;3.30;;;6.90;99.90;;;;;;4995928;28;20206;-64
2021/04/18 04:17:40;;;;;;;5.87;3.33;;;6.90;99.90;;;;;;4996314;28;20498;-64
2021/04/18 04:20:06;;;;;;;7.30;4.27;;;6.80;99.90;;;;;;4996567;28;20252;-63
2021/04/18 04:22:31;;;;;;;7.00;4.50;;;7.00;99.90;;;;;;4996150;28;20222;-64
2021/04/18 04:24:58;;;;;;;10.07;4.30;;;7.20;99.90;;;;;;4995296;28;20198;-64
2021/04/18 04:27:23;;;;;;;6.70;3.95;;;7.30;99.90;;;;;;4996428;28;20214;-66
2021/04/18 04:29:50;;;;;;;8.03;4.77;;;7.40;1.00;;;;;;4996090;28;20276;-64
2021/04/18 04:32:16;;;;;;;6.88;3.25;;;7.40;1.00;;;;;;4996008;28;20280;-64
2021/04/18 04:34:42;;;;;;;5.53;2.70;;;7.50;1.00;;;;;;4995376;28;20619;-64
2021/04/18 04:37:07;;;;;;;8.97;3.90;;;7.60;99.90;;;;;;4995719;28;20270;-64
2021/04/18 04:39:33;;;;;;;7.53;3.93;;;7.70;1.00;;;;;;4995686;28;20269;-64
2021/04/18 04:42:00;;;;;;;6.07;3.00;;;7.50;1.00;;;;;;4995863;28;20238;-64
2021/04/18 04:44:26;;;;;;;7.25;3.90;;;7.50;99.90;;;;;;4995352;28;20613;-64
2021/04/18 04:46:52;;;;;;;5.45;3.65;;;7.70;99.90;;;;;;4995611;28;20179;-63
2021/04/18 04:49:17;;;;;;;8.43;4.50;;;7.80;99.90;;;;;;4995379;28;20520;-63
2021/04/18 04:51:43;;;;;;;6.50;3.83;;;8.20;1.00;;;;;;4995625;28;20222;-63
2021/04/18 04:54:09;;;;;;;7.67;3.63;;;8.70;1.00;;;;;;4994975;28;20605;-64
2021/04/18 04:56:34;;;;;;;4.80;3.80;;;9.20;52.20;;;;;;4995457;28;20186;-63
2021/04/18 04:59:00;;;;;;;7.80;3.50;;;9.40;99.90;;;;;;4995538;28;20278;-63
2021/04/18 05:01:25;;;;;;;7.70;3.67;;;10.10;1.00;;;;;;4995252;28;20178;-63
2021/04/18 05:03:51;;;;;;;6.87;4.00;;;10.30;1.00;;;;;;4994959;28;20198;-63
2021/04/18 05:06:16;;;;;;;7.23;3.87;;;10.40;1.00;;;;;;4995365;28;20198;-62
2021/04/18 05:08:42;;;;;;;8.40;3.67;;;10.80;1.00;;;;;;4994106;28;20180;-61
2021/04/18 05:11:08;;;;;;;4.73;3.50;;;10.50;1.00;;;;;;4995184;28;20183;-62
2021/04/18 05:13:33;;;;;;;9.27;3.90;;;11.00;1.00;;;;;;4994929;28;20179;-61
2021/04/18 05:15:59;;;;;;;7.20;4.20;;;11.50;99.90;;;;;;4995098;28;20183;-62
2021/04/18 05:18:24;;;;;;;8.23;4.80;;;12.00;99.90;;;;;;4995330;28;20547;-62
2021/04/18 05:20:50;;;;;;;5.07;3.33;;;11.50;99.90;;;;;;4995163;28;20187;-62
2021/04/18 05:23:16;;;;;;;8.30;3.47;;;11.20;99.90;;;;;;4994410;28;20773;-62
2021/04/18 05:25:41;;;;;;;4.57;3.80;;;11.50;99.90;;;;;;4994905;28;20198;-62
2021/04/18 05:28:07;;;;;;;7.87;4.40;;;11.80;99.90;;;;;;4994810;28;20972;-62
2021/04/18 05:30:33;;;;;;;9.43;3.93;;;12.10;1.00;;;;;;4994782;28;20171;-62
2021/04/18 05:32:59;;;;;;;6.45;3.70;;;11.60;18.80;;;;;;4994609;28;20183;-62
2021/04/18 05:35:24;;;;;;;5.40;4.07;;;11.70;98.80;;;;;;4993470;28;20251;-62
2021/04/18 05:37:50;;;;;;;7.53;3.90;;;11.90;93.80;;;;;;4994469;28;20187;-62
2021/04/18 05:40:16;;;;;;;9.80;3.60;;;11.90;82.70;;;;;;4994738;28;20270;-62
2021/04/18 05:42:42;;;;;;;5.67;3.70;;;12.20;62.40;;;;;;4994566;28;20238;-62
2021/04/18 05:45:08;;;;;;;5.67;3.33;;;11.90;99.90;;;;;;4994396;28;20426;-62
2021/04/18 05:47:33;;;;;;;4.45;3.58;;;12.60;10.20;;;;;;4994353;28;20187;-62
2021/04/18 05:49:59;;;;;;;5.40;3.63;;;12.60;1.00;;;;;;4994390;28;20206;-62
2021/04/18 05:52:25;;;;;;;6.87;3.83;;;13.20;1.00;;;;;;4994277;28;20266;-62
2021/04/18 05:54:52;;;;;;;11.23;4.60;;;13.10;1.00;;;;;;4993969;28;20183;-62
2021/04/18 05:57:18;;;;;;;8.05;3.58;;;13.00;1.00;;;;;;4994573;28;20571;-62
2021/04/18 05:59:43;;;;;;;6.32;3.45;;;12.90;1.00;;;;;;4994447;28;20204;-62
2021/04/18 06:02:09;;;;;;;5.33;3.60;;;11.90;49.80;;;;;;4994578;28;20305;-62
2021/04/18 06:04:35;;;;;;;6.57;3.10;;;11.50;99.90;;;;;;4994278;28;20232;-62
2021/04/18 06:07:01;;;;;;;7.47;4.70;;;11.50;99.90;;;;;;4993563;28;20296;-62
2021/04/18 06:09:27;;;;;;;8.87;4.33;;;11.50;99.90;;;;;;4994560;28;20175;-62
2021/04/18 06:11:52;;;;;;;5.75;3.50;;;11.30;99.90;;;;;;4994483;28;20489;-62
2021/04/18 06:14:18;;;;;;;7.70;3.87;;;9.90;1.00;;;;;;4994017;28;20214;-62
2021/04/18 06:16:44;;;;;;;8.00;4.43;;;9.70;99.90;;;;;;4994270;28;20197;-61
2021/04/18 06:19:09;;;;;;;6.30;4.10;;;9.30;1.00;;;;;;4994263;28;20556;-61
2021/04/18 06:21:35;;;;;;;12.97;4.70;;;9.20;1.00;;;;;;4992834;28;20210;-62
2021/04/18 06:24:00;;;;;;;6.20;3.67;;;9.00;99.90;;;;;;4993886;28;20650;-61
2021/04/18 06:26:26;;;;;;;4.97;3.53;;;10.50;99.90;;;;;;4993221;28;20654;-62
2021/04/18 06:28:52;;;;;;;7.50;5.30;;;12.40;99.90;;;;;;4994518;28;20551;-63
2021/04/18 06:31:18;;;;;;;7.03;4.10;;;14.40;1.00;;;;;;4994330;28;20178;-63
2021/04/18 06:33:44;;;;;;;7.83;4.40;;;15.20;1.00;;;;;;4994207;28;20556;-62
2021/04/18 06:36:09;;;;;;;4.83;3.43;;;14.20;1.00;;;;;;4993274;28;20682;-62
2021/04/18 06:38:35;;;;;;;7.47;4.20;;;14.30;1.00;;;;;;4992860;28;20612;-63
2021/04/18 06:41:01;;;;;;;12.27;4.80;;;13.90;1.00;;;;;;4994032;28;20628;-63
2021/04/18 06:43:28;;;;;;;11.23;6.68;;;13.50;1.00;;;;;;4993101;28;20207;-63
2021/04/18 06:45:53;;;;;;;7.35;3.55;;;13.30;1.00;;;;;;4994122;28;20187;-62
2021/04/18 06:48:20;;;;;;;5.73;3.60;;;13.10;1.00;;;;;;4993114;28;20180;-62
2021/04/18 06:50:47;;;;;;;7.50;4.65;;;12.40;1.00;;;;;;4993628;28;20500;-60
2021/04/18 06:53:13;;;;;;;7.85;4.25;;;10.90;99.90;;;;;;4992953;28;20183;-60
2021/04/18 06:55:39;;;;;;;5.80;3.63;;;11.50;99.90;;;;;;4993804;28;20206;-60
2021/04/18 06:58:05;;;;;;;9.88;4.20;;;12.20;1.00;;;;;;4993995;28;20907;-62
2021/04/18 07:00:32;;;;;;;9.88;3.92;;;13.50;1.00;;;;;;4993481;28;20187;-62
2021/04/18 07:03:13;;;;;;;4.90;3.50;;;14.10;1.00;;;;;;4993843;28;20210;-61
2021/04/18 07:05:44;;;;;;;10.50;4.20;;;13.10;1.00;;;;;;4993719;28;20175;-61
2021/04/18 07:08:21;;;;;;;6.95;4.18;;;12.20;1.00;;;;;;4993374;28;20639;-61
2021/04/18 07:10:47;;;;;;;4.90;3.65;;;12.30;1.00;;;;;;4993371;28;20186;-62
2021/04/18 07:13:16;;;;;;;8.60;5.40;;;11.90;1.00;;;;;;4992037;28;20187;-61
2021/04/18 07:15:44;;;;;;;6.10;3.92;;;11.60;1.00;;;;;;4993383;28;20438;-61
2021/04/18 07:18:13;;;;;;;6.72;3.97;;;11.00;1.00;;;;;;4993470;28;20183;-61
2021/04/18 07:20:53;;;;;;;6.93;4.03;;;10.20;99.90;;;;;;4993258;28;20186;-60
2021/04/18 07:23:33;;;;;;;6.03;4.82;;;10.10;99.90;;;;;;4992857;28;20223;-63
2021/04/18 07:26:15;;;;;;;6.28;3.72;;;10.70;99.90;;;;;;4992941;28;20273;-63
2021/04/18 07:28:40;;;;;;;8.27;4.68;;;10.60;99.90;;;;;;4993227;28;20229;-63
2021/04/18 07:31:06;;;;;;;10.63;5.30;;;10.80;32.80;;;;;;4993376;28;20187;-63
2021/04/18 07:33:31;;;;;;;6.80;4.20;;;10.90;37.80;;;;;;4992934;28;20501;-63
2021/04/18 07:35:57;;;;;;;5.43;4.90;;;10.40;84.80;;;;;;4993312;28;20623;-63
2021/04/18 07:38:28;;;;;;;8.23;4.60;;;10.40;99.90;;;;;;4993236;28;20680;-63
2021/04/18 07:40:56;;;;;;;10.82;4.43;;;10.50;99.90;;;;;;4993030;28;20195;-63
2021/04/18 07:43:22;;;;;;;10.90;4.78;;;10.50;99.90;;;;;;4992280;28;20206;-64
2021/04/18 07:45:49;;;;;;;11.02;5.53;;;10.80;99.90;;;;;;4993118;28;20319;-63
2021/04/18 07:48:17;;;;;;;5.47;4.65;;;10.90;57.40;;;;;;4992906;28;20505;-63
2021/04/18 07:50:48;;;;;;;6.65;4.22;;;10.70;62.10;;;;;;4992910;28;20621;-63
2021/04/18 07:53:17;;;;;;;11.27;4.60;;;10.80;52.70;;;;;;4990057;28;20290;-63
2021/04/18 07:55:44;;;;;;;12.18;5.05;;;10.80;75.20;;;;;;4992800;28;20270;-63
2021/04/18 07:58:10;;;;;;;7.90;5.13;;;10.40;99.90;;;;;;5000935;28;20179;-63
2021/04/18 08:00:35;;;;;;;7.93;5.25;;;10.70;99.90;;;;;;4996213;28;20676;-63
2021/04/18 08:03:01;;;;;;;10.83;4.70;;;11.00;99.90;;;;;;4996249;28;20299;-63
2021/04/18 08:05:30;;;;;;;12.68;5.75;;;10.90;99.90;;;;;;4995839;28;20523;-62
2021/04/18 08:08:13;;;;;;;8.68;5.57;;;11.10;99.90;;;;;;4996056;28;20249;-62
2021/04/18 08:10:44;;;;;;;10.35;5.30;;;11.40;90.30;;;;;;4995117;28;20206;-62
2021/04/18 08:13:21;;;;;;;6.85;4.40;;;11.30;99.90;;;;;;4996288;28;20214;-61
2021/04/18 08:15:52;;;;;;;11.65;7.38;;;11.80;54.70;;;;;;4996613;28;20179;-62
2021/04/18 08:18:26;;;;;;;10.45;5.47;;;12.10;1.00;;;;;;4996002;28;20180;-62
2021/04/18 08:20:51;;;;;;;10.48;4.65;;;11.30;53.00;;;;;;4995123;28;20195;-64
2021/04/18 08:23:17;;;;;;;5.43;4.23;;;11.50;14.70;;;;;;4995902;28;20211;-64
2021/04/18 08:26:12;;;;;;;9.37;5.03;;;11.30;99.90;;;;;;4996350;28;20192;-64
2021/04/18 08:28:58;;;;;;;10.77;5.78;;;11.50;56.50;;;;;;4996291;28;20434;-62
2021/04/18 08:31:30;;;;;;;7.50;4.50;;;12.00;1.00;;;;;;4996370;28;20222;-63
2021/04/18 08:33:59;;;;;;;7.60;5.80;;;12.30;1.00;;;;;;4994689;28;20702;-63
2021/04/18 08:36:34;;;;;;;7.68;5.05;;;12.20;1.00;;;;;;4995979;28;20195;-63
2021/04/18 08:39:05;;;;;;;7.10;4.45;;;12.10;1.00;;;;;;4995737;28;20178;-62
2021/04/18 08:41:37;;;;;;;7.50;4.35;;;12.50;1.00;;;;;;4995810;28;20172;-63
2021/04/18 08:44:21;;;;;;;10.40;5.53;;;12.80;1.00;;;;;;4995629;28;20267;-65
2021/04/18 08:46:53;;;;;;;11.40;5.68;;;12.90;1.00;;;;;;4995751;28;20245;-65
2021/04/18 08:49:30;;;;;;;9.43;6.28;;;12.80;1.00;;;;;;4995580;28;20636;-63
2021/04/18 08:51:57;;;;;;;13.60;6.18;;;12.40;1.00;;;;;;4995853;28;20619;-63
2021/04/18 08:54:31;;;;;;;9.40;6.35;;;12.40;1.00;;;;;;4995066;28;20630;-63
2021/04/18 08:56:59;;;;;;;13.23;7.20;;;12.80;1.00;;;;;;4995454;28;20201;-63
2021/04/18 08:59:29;;;;;;;9.88;7.15;;;12.70;1.00;;;;;;4995460;28;20674;-64
2021/04/18 09:01:54;;;;;;;8.52;5.88;;;12.50;1.00;;;;;;4995327;28;20203;-64
2021/04/18 09:04:21;;;;;;;9.70;6.17;;;12.60;1.00;;;;;;4995077;28;20180;-64
2021/04/18 09:06:48;;;;;;;9.13;6.32;;;12.80;1.00;;;;;;4995528;28;20512;-63
2021/04/18 09:09:14;;;;;;;9.60;6.60;;;13.10;1.00;;;;;;4995113;28;20178;-63
2021/04/18 09:11:44;;;;;;;13.27;6.68;;;13.30;1.00;;;;;;4994195;28;20192;-62
2021/04/18 09:14:10;;;;;;;9.40;6.30;;;13.30;1.00;;;;;;4993442;28;20523;-63
2021/04/18 09:16:38;;;;;;;12.43;6.93;;;13.10;1.00;;;;;;4995198;28;20472;-63
2021/04/18 09:19:18;;;;;;;8.05;5.70;;;13.00;1.00;;;;;;4995089;28;20253;-63
2021/04/18 09:22:04;;;;;;;7.90;5.85;;;13.50;1.00;;;;;;4995113;28;20303;-63
2021/04/18 09:24:30;;;;;;;9.45;6.53;;;13.70;1.00;;;;;;4994379;28;20189;-63
2021/04/18 09:27:08;;;;;;;10.20;7.10;;;14.10;1.00;;;;;;4995157;28;20342;-64
2021/04/18 09:29:38;;;;;;;10.57;7.18;;;14.10;1.00;;;;;;4995331;28;20549;-63
2021/04/18 09:32:11;;;;;;;12.10;6.07;;;13.60;1.00;;;;;;4995010;28;20200;-63
2021/04/18 09:34:39;;;;;;;9.85;6.50;;;13.80;1.00;;;;;;4994581;28;20199;-66
2021/04/18 09:37:08;;;;;;;10.73;6.53;;;13.80;1.00;;;;;;4993769;28;20189;-64
2021/04/18 09:39:36;;;;;;;11.45;7.85;;;13.40;1.00;;;;;;4994685;28;20173;-62
2021/04/18 09:42:03;;;;;;;9.30;6.72;;;13.10;1.00;;;;;;4994841;28;20251;-63
2021/04/18 09:44:33;;;;;;;9.30;6.80;;;12.90;1.00;;;;;;4994228;28;20183;-63
2021/04/18 09:47:04;;;;;;;9.43;6.55;;;13.10;1.00;;;;;;4994545;28;20483;-63
2021/04/18 09:49:46;;;;;;;8.30;6.90;;;13.10;1.00;;;;;;4994808;28;20258;-63
2021/04/18 09:52:26;;;;;;;8.82;6.72;;;13.00;1.00;;;;;;4994340;28;20167;-63
2021/04/18 09:54:51;;;;;;;11.98;6.75;;;12.80;5.40;;;;;;4992813;28;20191;-63
2021/04/18 09:57:23;;;;;;;8.23;7.30;;;13.10;1.00;;;;;;4987812;28;20195;-64
2021/04/18 10:00:07;;;;;;;5.97;5.32;;;13.40;1.00;;;;;;4995255;28;20623;-63
2021/04/18 10:02:33;;;;;;;9.65;7.03;;;13.60;1.00;;;;;;5000261;28;20255;-62
2021/04/18 10:05:16;;;;;;;9.30;6.70;;;13.50;1.00;;;;;;4998837;28;20315;-62
2021/04/18 10:07:42;;;;;;;7.50;6.68;;;13.50;1.00;;;;;;5005337;28;20266;-63
2021/04/18 10:10:10;;;;;;;9.15;6.55;;;13.80;1.00;;;;;;5004952;28;20876;-63
2021/04/18 10:12:52;;;;;;;7.22;6.22;;;13.20;1.00;;;;;;5013714;28;20264;-63
2021/04/18 10:15:19;;;;;;;8.30;6.15;;;13.20;1.00;;;;;;5008461;28;20185;-64
2021/04/18 10:17:45;;;;;;;10.38;6.32;;;13.50;1.00;;;;;;4993711;28;20368;-63
2021/04/18 10:20:11;;;;;;;9.60;5.90;;;14.00;1.00;;;;;;4993635;28;20456;-63
2021/04/18 10:22:37;;;;;;;6.93;4.85;;;13.90;1.00;;;;;;4993504;28;20215;-63
2021/04/18 10:25:08;;;;;;;10.07;6.10;;;14.10;1.00;;;;;;4993304;28;20575;-63
2021/04/18 10:27:34;;;;;;;13.60;6.50;;;14.30;1.00;;;;;;4993881;28;20275;-62
2021/04/18 10:30:08;;;;;;;11.18;5.90;;;14.40;1.00;;;;;;4992263;28;20497;-63
2021/04/18 10:32:33;;;;;;;10.15;6.45;;;14.60;1.00;;;;;;4993452;28;20176;-63
2021/04/18 10:34:59;;;;;;;7.50;5.73;;;14.70;1.00;;;;;;4993154;28;20244;-63
2021/04/18 10:37:25;;;;;;;7.57;6.43;;;14.50;1.00;;;;;;4993647;28;20272;-63
2021/04/18 10:39:50;;;;;;;7.97;5.97;;;14.20;1.00;;;;;;4993427;28;20182;-63
2021/04/18 10:42:16;;;;;;;12.43;6.43;;;14.50;1.00;;;;;;4993573;28;20216;-62
2021/04/18 10:44:45;;;;;;;11.97;5.97;;;14.70;1.00;;;;;;4993402;28;20217;-62
2021/04/18 10:47:15;;;;;;;7.63;6.07;;;14.20;1.00;;;;;;4993274;28;20578;-65
2021/04/18 10:49:41;;;;;;;8.88;5.75;;;13.80;1.00;;;;;;4993784;28;20190;-62
2021/04/18 10:52:07;;;;;;;8.30;6.20;;;13.80;1.00;;;;;;4993461;28;20178;-62
2021/04/18 10:54:33;;;;;;;9.80;6.80;;;14.10;1.00;;;;;;4992706;28;20786;-62
2021/04/18 10:56:59;;;;;;;8.65;5.68;;;14.50;1.00;;;;;;4993222;28;20186;-64
2021/04/18 10:59:28;;;;;;;6.63;5.20;;;14.90;1.00;;;;;;4993541;28;20209;-63
2021/04/18 11:01:54;;;;;;;8.10;5.40;;;14.60;1.00;;;;;;4993751;28;20596;-65
2021/04/18 11:04:19;;;;;;;5.80;4.73;;;14.90;1.00;;;;;;4992903;28;20178;-63
2021/04/18 11:06:45;;;;;;;9.70;5.80;;;14.70;1.00;;;;;;4993363;28;20179;-64
2021/04/18 11:09:11;;;;;;;8.00;5.53;;;14.90;1.00;;;;;;4993284;28;20453;-62
2021/04/18 11:11:37;;;;;;;10.37;6.60;;;15.20;1.00;;;;;;4993607;28;20237;-64
2021/04/18 11:14:04;;;;;;;9.90;5.72;;;14.70;1.00;;;;;;4993109;28;20541;-65
2021/04/18 11:16:30;;;;;;;8.00;4.95;;;14.90;1.00;;;;;;4992589;28;20573;-64
2021/04/18 11:18:55;;;;;;;6.57;5.60;;;14.70;1.00;;;;;;4993396;28;20273;-63
2021/04/18 11:21:22;;;;;;;6.93;5.23;;;14.90;1.00;;;;;;4993166;28;20191;-62
2021/04/18 11:23:48;;;;;;;8.07;5.75;;;15.50;1.00;;;;;;4991653;28;20235;-65
2021/04/18 11:26:14;;;;;;;6.53;5.63;;;15.70;1.00;;;;;;4992256;28;20203;-67
2021/04/18 11:28:39;;;;;;;9.57;5.57;;;16.00;1.00;;;;;;4993575;28;20485;-71
2021/04/18 11:31:05;;;;;;;6.40;5.37;;;15.50;1.00;;;;;;4993593;28;20618;-64
2021/04/18 11:33:32;;;;;;;6.63;5.40;;;15.60;1.00;;;;;;4994067;28;20518;-63
2021/04/18 11:35:57;;;;;;;9.17;5.70;;;16.40;1.00;;;;;;4997139;28;20172;-63
2021/04/18 11:38:23;;;;;;;7.20;5.47;;;16.70;1.00;;;;;;4996982;28;20443;-63
2021/04/18 11:40:49;;;;;;;9.03;6.03;;;16.60;1.00;;;;;;4996834;28;20270;-63
2021/04/18 11:43:14;;;;;;;8.00;5.00;;;16.30;1.00;;;;;;4996162;28;20701;-67
2021/04/18 11:45:40;;;;;;;6.27;4.70;;;16.70;1.00;;;;;;4996887;28;20236;-65
2021/04/18 11:48:07;;;;;;;8.63;5.83;;;16.30;1.00;;;;;;4997109;28;20345;-65
2021/04/18 11:50:34;;;;;;;7.83;5.50;;;16.40;1.00;;;;;;5012434;28;20468;-62
2021/04/18 11:53:00;;;;;;;6.80;5.47;;;16.60;1.00;;;;;;4995805;28;20441;-68
2021/04/18 11:55:26;;;;;;;7.20;5.90;;;15.80;1.00;;;;;;4996669;28;20429;-66
2021/04/18 11:57:51;;;;;;;7.50;6.53;;;16.10;1.00;;;;;;4996080;28;20434;-65
2021/04/18 12:00:18;;;;;;;7.23;5.57;;;15.80;1.00;;;;;;4996687;28;20461;-64
2021/04/18 12:02:45;;;;;;;8.50;6.80;;;16.00;1.00;;;;;;4996672;28;20211;-64
2021/04/18 12:05:11;;;;;;;7.63;6.17;;;16.00;1.00;;;;;;4994694;28;20442;-63
2021/04/18 12:07:37;;;;;;;8.40;6.50;;;16.40;1.00;;;;;;4996279;28;20426;-64
2021/04/18 12:10:05;;;;;;;9.10;6.80;;;16.40;1.00;;;;;;4996684;28;20444;-64
2021/04/18 12:12:30;;;;;;;10.00;7.03;;;15.90;1.00;;;;;;4996125;28;20277;-63
2021/04/18 12:14:56;;;;;;;7.43;5.47;;;15.90;1.00;;;;;;4995982;28;20869;-65
2021/04/18 12:17:25;;;;;;;7.63;6.83;;;15.90;1.00;;;;;;4996238;28;20190;-63
2021/04/18 12:19:51;;;;;;;7.27;6.00;;;15.70;1.00;;;;;;4996099;28;20187;-66
2021/04/18 12:22:17;;;;;;;7.40;6.33;;;15.80;1.00;;;;;;4996687;28;20487;-63
2021/04/18 12:24:42;;;;;;;7.53;5.80;;;15.90;1.00;;;;;;5010771;28;20195;-63
2021/04/18 12:27:09;;;;;;;7.63;6.50;;;16.10;1.00;;;;;;4996271;28;20189;-66
2021/04/18 12:29:34;;;;;;;6.78;5.68;;;16.10;1.00;;;;;;4995628;28;20263;-65
2021/04/18 12:32:00;;;;;;;9.30;7.10;;;15.50;1.00;;;;;;4996064;28;20179;-64
2021/04/18 12:34:25;;;;;;;9.83;6.17;;;15.40;1.00;;;;;;4995523;28;20633;-62
2021/04/18 12:36:51;;;;;;;8.43;6.37;;;15.80;1.00;;;;;;4996166;28;20175;-65
2021/04/18 12:39:17;;;;;;;6.37;5.50;;;16.10;1.00;;;;;;4996016;28;20562;-65
2021/04/18 12:41:43;;;;;;;6.43;5.73;;;16.30;1.00;;;;;;4995799;28;20186;-65
2021/04/18 12:44:08;;;;;;;8.40;6.40;;;16.40;1.00;;;;;;4995156;28;20186;-64
2021/04/18 12:46:34;;;;;;;7.90;6.77;;;16.70;1.00;;;;;;4995238;28;20429;-64
2021/04/18 12:49:00;;;;;;;11.20;7.07;;;16.40;1.00;;;;;;4995717;28;20186;-62
2021/04/18 12:51:27;;;;;;;6.63;5.50;;;16.10;1.00;;;;;;4995648;28;20186;-62
2021/04/18 12:53:53;;;;;;;7.93;6.17;;;16.10;1.00;;;;;;4995541;28;20437;-62
2021/04/18 12:56:19;;;;;;;10.00;7.50;;;16.70;1.00;;;;;;4995704;28;20434;-63